Flight Track Log - Related Links

Times and Time Zones

All times are in EDT time to prevent confusion due to time zone crossing. See the N518PC flight status page for this flight to view local times or setup timezone preferences in your user account.

Time Position Orientation Groundspeed Altitude Reporting Facility
EDT Latitude Longitude Course Direction KTS MPH feet Rate Location/Type
Fri 05:56:19 PM 44.7667 -93.4167 160° South 144 166 3,000  Level Minneapolis TRACON
Fri 05:57:12 PM 44.7356 -93.3989 158° South 165 190 3,000 52 Level Minneapolis Center
Fri 05:58:14 PM 44.6853 -93.3569 149° Southeast 180 207 3,100 -48 Climbing Minneapolis Center
Fri 05:59:16 PM 44.6608 -93.2947 119° Southeast 185 213 2,900  Descending Minneapolis Center
Fri 06:00:18 PM 44.6358 -93.2342 120° Southeast 182 209 3,100 48 Climbing Minneapolis Center
Fri 06:01:20 PM 44.6114 -93.1731 119° Southeast 183 211 3,000 -48 Descending Minneapolis Center
Fri 06:02:22 PM 44.5819 -93.0994 119° Southeast 183 211 3,000 -48 Level Minneapolis Center
Fri 06:03:24 PM 44.5564 -93.0394 121° Southeast 181 208 2,900 581 Descending Minneapolis Center
Fri 06:04:26 PM 44.5353 -92.9858 119° Southeast 160 184 4,200 1,210 Climbing Minneapolis Center
Fri 06:05:28 PM 44.5153 -92.9378 120° Southeast 146 168 5,400 1,065 Climbing Minneapolis Center
Fri 06:06:30 PM 44.4942 -92.8881 121° Southeast 148 170 6,400 677 Climbing Minneapolis Center
Fri 06:07:32 PM 44.4728 -92.8333 119° Southeast 162 186 6,800 290 Climbing Minneapolis Center
Fri 06:08:34 PM 44.4431 -92.7550 118° Southeast 188 216 7,000 49 Climbing Minneapolis Center
Fri 06:09:35 PM 44.4172 -92.6881 118° Southeast 197 227 6,900 -49 Descending Minneapolis Center
Fri 06:10:37 PM 44.3911 -92.6225 119° Southeast 196 226 6,900  Level Minneapolis Center
Fri 06:11:39 PM 44.3656 -92.5564 118° Southeast 194 223 6,900 48 Level Minneapolis Center
Fri 06:12:41 PM 44.3358 -92.4797 118° Southeast 198 228 7,000 48 Climbing Minneapolis Center
Fri 06:13:43 PM 44.3119 -92.4136 117° Southeast 193 222 7,000  Level Minneapolis Center
Fri 06:14:45 PM 44.2847 -92.3425 118° Southeast 193 222 7,000  Level Minneapolis Center
Fri 06:15:47 PM 44.2606 -92.2764 117° Southeast 196 226 7,000  Level Minneapolis Center
Fri 06:16:49 PM 44.2331 -92.2044 118° Southeast 197 227 7,000 435 Level Minneapolis Center
Fri 06:17:51 PM 44.2103 -92.1422 117° Southeast 182 209 7,900 919 Climbing Minneapolis Center
Fri 06:18:53 PM 44.1872 -92.0847 119° Southeast 160 184 8,900 532 Climbing Minneapolis Center
Fri 06:19:55 PM 44.1597 -92.0239 122° Southeast 188 216 9,000 48 Climbing Minneapolis Center
Fri 06:20:57 PM 44.1300 -91.9528 120° Southeast 199 229 9,000  Level Minneapolis Center
Fri 06:21:59 PM 44.1025 -91.8853 120° Southeast 203 234 9,000  Level Minneapolis Center
Fri 06:23:01 PM 44.0736 -91.8106 118° Southeast 203 234 9,000  Level Minneapolis Center
Fri 06:24:03 PM 44.0469 -91.7417 118° Southeast 205 236 9,000  Level Minneapolis Center
Fri 06:25:06 PM 44.0156 -91.6700 121° Southeast 202 232 9,000  Level Minneapolis Center
Fri 06:26:08 PM 43.9825 -91.5972 122° Southeast 209 241 9,000  Level Minneapolis Center
Fri 06:27:10 PM 43.9497 -91.5297 124° Southeast 205 236 9,000 -48 Level Minneapolis Center
Fri 06:28:12 PM 43.9194 -91.4650 123° Southeast 205 236 8,900 -48 Descending Minneapolis Center
Fri 06:29:14 PM 43.8858 -91.3958 124° Southeast 206 237 8,900 48 Level Minneapolis Center
Fri 06:30:16 PM 43.8558 -91.3269 121° Southeast 199 229 9,000  Climbing Minneapolis Center
Fri 06:31:18 PM 43.8239 -91.2550 122° Southeast 211 243 8,900 -48 Descending Minneapolis Center
Fri 06:32:20 PM 43.7936 -91.1825 120° Southeast 209 241 8,900 48 Level Minneapolis Center
Fri 06:33:22 PM 43.7650 -91.1125 119° Southeast 202 232 9,000 48 Climbing Minneapolis Center
Fri 06:34:24 PM 43.7361 -91.0436 120° Southeast 200 230 9,000  Level Minneapolis Center
Fri 06:35:26 PM 43.7081 -90.9792 121° Southeast 202 232 9,000 -48 Level Minneapolis Center
Fri 06:36:28 PM 43.6794 -90.9100 120° Southeast 200 230 8,900 -97 Descending Minneapolis Center
Fri 06:37:30 PM 43.6503 -90.8397 120° Southeast 203 234 8,800 48 Descending Minneapolis Center
Fri 06:38:32 PM 43.6208 -90.7717 121° Southeast 197 227 9,000 97 Climbing Minneapolis Center
Fri 06:39:34 PM 43.5908 -90.7061 122° Southeast 195 224 9,000  Level Minneapolis Center
Fri 06:40:36 PM 43.5631 -90.6356 118° Southeast 200 230 9,000  Level Minneapolis Center
Fri 06:41:38 PM 43.5356 -90.5664 119° Southeast 197 227 9,000  Level Minneapolis Center
Fri 06:42:40 PM 43.5086 -90.4958 118° Southeast 199 229 9,000  Level Minneapolis Center
Fri 06:43:42 PM 43.4836 -90.4300 118° Southeast 202 232 9,000 48 Level Minneapolis Center
Fri 06:44:45 PM 43.4539 -90.3614 121° Southeast 200 230 9,100  Climbing Minneapolis Center
Fri 06:45:47 PM 43.4253 -90.2917 119° Southeast 201 231 9,000 -48 Descending Minneapolis Center
Fri 06:46:49 PM 43.3944 -90.2225 122° Southeast 204 235 9,000 -48 Level Minneapolis Center
Fri 06:47:51 PM 43.3592 -90.1592 127° Southeast 201 231 8,900 65 Descending Minneapolis Center
Fri 06:48:22 PM 43.3425 -90.1308 129° Southeast 202 232 9,100 -194 Climbing Chicago Center
Fri 06:49:24 PM 43.3075 -90.0700 128° Southeast 202 232 8,600 -677 Descending Chicago Center
Fri 06:50:26 PM 43.2711 -90.0047 127° Southeast 210 242 7,700 -1,016 Descending Chicago Center
Fri 06:51:28 PM 43.2328 -89.9389 129° Southeast 217 250 6,500 -1,258 Descending Chicago Center
Fri 06:52:30 PM 43.1864 -89.8650 131° Southeast 219 252 5,100 -1,161 Descending Chicago Center
Fri 06:53:32 PM 43.1497 -89.8036 129° Southeast 214 246 4,100 -968 Descending Chicago Center
Fri 06:54:34 PM 43.1375 -89.7308 103° East 204 235 3,100 -629 Descending Chicago Center
Fri 06:55:36 PM 43.1297 -89.6514 98° East 200 230 2,800 -290 Descending Chicago Center

Login

Don't have an account? Register now (free) for customized features, flight alerts, and more!